createdAt,value
2023-03-29T00:02:42.089Z,99212.20
2023-03-29T00:05:51.327Z,99212.80
2023-03-29T00:08:59.482Z,99203.20
2023-03-29T00:12:07.969Z,99201.60
2023-03-29T00:15:16.739Z,99194.80
2023-03-29T00:18:24.832Z,99200.40
2023-03-29T00:21:33.161Z,99203.60
2023-03-29T00:24:41.413Z,99212.20
2023-03-29T00:27:49.389Z,99201.00
2023-03-29T00:31:05.249Z,99202.80
2023-03-29T00:34:13.762Z,99205.60
2023-03-29T00:37:22.825Z,99204.20
2023-03-29T00:40:30.820Z,99202.40
2023-03-29T00:44:00.900Z,99199.60
2023-03-29T00:47:09.189Z,99193.00
2023-03-29T00:50:26.000Z,99194.80
2023-03-29T00:53:38.210Z,99186.20
2023-03-29T00:56:51.201Z,99192.80
2023-03-29T01:00:01.794Z,99187.20
2023-03-29T01:03:14.645Z,99185.80
2023-03-29T01:06:29.484Z,99178.40
2023-03-29T01:09:43.045Z,99177.00
2023-03-29T01:12:56.739Z,99171.20
2023-03-29T01:16:07.463Z,99168.60
2023-03-29T01:19:21.704Z,99178.40
2023-03-29T01:22:40.971Z,99168.80
2023-03-29T01:26:01.962Z,99173.40
2023-03-29T01:29:16.735Z,99174.80
2023-03-29T01:32:31.289Z,99170.80
2023-03-29T01:35:46.775Z,99174.80
2023-03-29T01:39:05.331Z,99172.60
2023-03-29T01:42:31.150Z,99167.00
2023-03-29T01:45:47.685Z,99169.80
2023-03-29T01:49:01.805Z,99171.20
2023-03-29T01:52:17.413Z,99171.80
2023-03-29T01:55:32.764Z,99174.40
2023-03-29T01:58:47.223Z,99173.80
2023-03-29T02:02:00.866Z,99173.60
2023-03-29T02:05:12.854Z,99175.60
2023-03-29T02:08:23.632Z,99175.00
2023-03-29T02:11:32.253Z,99174.40
2023-03-29T02:14:40.589Z,99176.20
2023-03-29T02:17:49.605Z,99175.20
2023-03-29T02:21:00.370Z,99171.00
2023-03-29T02:24:15.585Z,99164.40
2023-03-29T02:27:24.375Z,99157.80
2023-03-29T02:30:42.108Z,99161.40
2023-03-29T02:33:55.952Z,99160.20
2023-03-29T02:37:10.508Z,99168.00
2023-03-29T02:40:21.192Z,99169.20
2023-03-29T02:43:31.221Z,99162.80
2023-03-29T02:46:39.941Z,99175.80
2023-03-29T02:49:48.898Z,99173.00
2023-03-29T02:53:03.129Z,99172.00
2023-03-29T02:56:12.798Z,99172.00
2023-03-29T02:59:22.867Z,99179.20
2023-03-29T03:02:31.128Z,99179.80
2023-03-29T03:05:39.375Z,99178.00
2023-03-29T03:08:47.930Z,99180.80
2023-03-29T03:11:56.275Z,99182.40
2023-03-29T03:15:04.235Z,99176.00
2023-03-29T03:18:12.979Z,99178.80
2023-03-29T03:21:21.248Z,99177.80
2023-03-29T03:24:29.323Z,99178.60
2023-03-29T03:27:37.396Z,99178.00
2023-03-29T03:30:45.921Z,99174.40
2023-03-29T03:33:54.628Z,99177.40
2023-03-29T03:37:02.902Z,99184.40
2023-03-29T03:40:14.130Z,99181.00
2023-03-29T03:43:22.313Z,99189.20
2023-03-29T03:46:30.405Z,99190.00
2023-03-29T03:49:38.472Z,99199.60
2023-03-29T03:52:46.914Z,99196.40
2023-03-29T03:55:56.394Z,99187.00
2023-03-29T03:59:05.358Z,99190.80
2023-03-29T04:02:13.365Z,99192.40
2023-03-29T04:05:21.340Z,99194.00
2023-03-29T04:08:30.424Z,99195.20
2023-03-29T04:11:38.712Z,99201.00
2023-03-29T04:14:47.701Z,99207.80
2023-03-29T04:17:55.682Z,99202.00
2023-03-29T04:21:04.519Z,99201.20
2023-03-29T04:24:13.050Z,99202.40
2023-03-29T04:27:21.822Z,99204.00
2023-03-29T04:30:29.934Z,99207.80
2023-03-29T04:33:38.020Z,99218.20
2023-03-29T04:36:46.478Z,99215.00
2023-03-29T04:39:55.195Z,99211.80
2023-03-29T04:43:03.243Z,99216.20
2023-03-29T04:46:11.406Z,99217.60
2023-03-29T04:49:19.635Z,99225.60
2023-03-29T04:52:27.736Z,99226.00
2023-03-29T04:55:36.093Z,99223.40
2023-03-29T04:58:44.839Z,99231.20
2023-03-29T05:01:52.948Z,99229.00
2023-03-29T05:05:01.421Z,99238.40
2023-03-29T05:08:12.770Z,99240.60
2023-03-29T05:11:21.434Z,99244.40
2023-03-29T05:14:29.585Z,99238.00
2023-03-29T05:17:37.834Z,99240.40
2023-03-29T05:20:46.112Z,99237.20
2023-03-29T05:23:54.672Z,99239.60
2023-03-29T05:27:02.690Z,99232.40
2023-03-29T05:30:15.385Z,99225.00
2023-03-29T05:33:23.815Z,99226.80
2023-03-29T05:36:32.407Z,99230.40
2023-03-29T05:39:40.709Z,99224.20
2023-03-29T05:42:49.272Z,99221.00
2023-03-29T05:45:59.483Z,99222.80
2023-03-29T05:49:08.806Z,99224.60
2023-03-29T05:52:17.294Z,99236.80
2023-03-29T05:55:25.356Z,99234.00
2023-03-29T05:58:33.265Z,99237.60
2023-03-29T06:01:41.943Z,99237.20
2023-03-29T06:04:50.063Z,99237.00
2023-03-29T06:07:59.052Z,99237.20
2023-03-29T06:11:11.450Z,99233.60
2023-03-29T06:14:19.593Z,99232.60
2023-03-29T06:17:28.228Z,99234.20
2023-03-29T06:20:37.190Z,99235.20
2023-03-29T06:23:45.706Z,99229.60
2023-03-29T06:26:54.174Z,99229.80
2023-03-29T06:30:03.112Z,99233.80
2023-03-29T06:33:11.649Z,99235.20
2023-03-29T06:36:20.512Z,99239.20
2023-03-29T06:39:28.693Z,99240.60
2023-03-29T06:42:37.204Z,99240.40
2023-03-29T06:45:45.350Z,99234.60
2023-03-29T06:48:53.589Z,99238.00
2023-03-29T06:52:01.858Z,99246.20
2023-03-29T06:55:12.078Z,99250.80
2023-03-29T06:58:20.649Z,99250.20
2023-03-29T07:01:29.540Z,99259.00
2023-03-29T07:04:37.702Z,99264.00
2023-03-29T07:07:57.170Z,99267.00
2023-03-29T07:11:05.537Z,99280.00
2023-03-29T07:14:13.528Z,99276.40
2023-03-29T07:17:22.968Z,99278.00
2023-03-29T07:20:31.233Z,99286.40
2023-03-29T07:23:40.071Z,99283.80
2023-03-29T07:27:00.116Z,99293.60
2023-03-29T07:30:17.974Z,99293.00
2023-03-29T07:33:26.091Z,99284.80
2023-03-29T07:36:34.868Z,99285.20
2023-03-29T07:39:43.196Z,99289.00
2023-03-29T07:42:52.681Z,99296.60
2023-03-29T07:46:04.968Z,99298.40
2023-03-29T07:49:12.988Z,99298.80
2023-03-29T07:52:20.928Z,99304.80
2023-03-29T07:55:28.955Z,99307.00
2023-03-29T07:58:38.089Z,99301.80
2023-03-29T08:01:47.027Z,99289.40
2023-03-29T08:04:56.926Z,99288.00
2023-03-29T08:08:03.312Z,99299.00
2023-03-29T08:11:11.390Z,99292.00
2023-03-29T08:14:19.140Z,99290.20
2023-03-29T08:17:27.160Z,99293.40
2023-03-29T08:20:35.369Z,99301.40
2023-03-29T08:23:43.767Z,99297.80
2023-03-29T08:26:52.198Z,99296.20
2023-03-29T08:30:00.207Z,99288.00
2023-03-29T08:33:08.173Z,99292.00
2023-03-29T08:36:16.707Z,99289.00
2023-03-29T08:39:24.985Z,99288.00
2023-03-29T08:43:07.315Z,99285.60
2023-03-29T08:46:35.106Z,99290.80
2023-03-29T08:49:49.834Z,99278.60
2023-03-29T08:53:02.843Z,99271.60
2023-03-29T08:56:18.034Z,99273.00
2023-03-29T08:59:32.101Z,99263.60
2023-03-29T09:02:42.358Z,99268.20
2023-03-29T09:05:54.706Z,99268.40
2023-03-29T09:09:02.815Z,99258.40
2023-03-29T09:12:31.828Z,99263.00
2023-03-29T09:15:52.049Z,99253.40
2023-03-29T09:19:14.885Z,99248.80
2023-03-29T09:22:32.168Z,99246.20
2023-03-29T09:25:55.498Z,99238.80
2023-03-29T09:29:24.070Z,99235.00
2023-03-29T09:32:42.346Z,99239.20
2023-03-29T09:36:00.142Z,99230.60
2023-03-29T09:39:10.892Z,99231.20
2023-03-29T09:42:21.200Z,99227.40
2023-03-29T09:45:29.109Z,99227.80
2023-03-29T09:48:44.809Z,99232.60
2023-03-29T09:51:55.838Z,99231.20
2023-03-29T09:55:06.200Z,99223.60
2023-03-29T09:58:22.076Z,99221.60
2023-03-29T10:01:42.229Z,99214.20
2023-03-29T10:04:58.897Z,99208.60
2023-03-29T10:08:20.166Z,99206.80
2023-03-29T10:11:35.706Z,99210.80
2023-03-29T10:14:53.042Z,99209.20
2023-03-29T10:18:10.947Z,99203.00
2023-03-29T10:21:22.268Z,99194.60
2023-03-29T10:24:31.206Z,99191.80
2023-03-29T10:27:42.397Z,99184.20
2023-03-29T10:30:57.525Z,99184.40
2023-03-29T10:34:09.036Z,99180.40
2023-03-29T10:37:19.679Z,99173.00
2023-03-29T10:40:34.681Z,99166.40
2023-03-29T10:43:49.733Z,99166.60
2023-03-29T10:46:57.874Z,99173.80
2023-03-29T10:50:16.581Z,99164.80
2023-03-29T10:53:30.180Z,99167.60
2023-03-29T10:56:46.924Z,99164.80
2023-03-29T11:00:02.984Z,99157.20
2023-03-29T11:03:35.454Z,99150.80
2023-03-29T11:06:54.464Z,99148.20
2023-03-29T11:10:26.100Z,99140.80
2023-03-29T11:13:46.855Z,99142.60
2023-03-29T11:17:17.724Z,99137.20
2023-03-29T11:20:36.290Z,99140.20
2023-03-29T11:23:56.810Z,99134.40
2023-03-29T11:27:25.882Z,99137.20
2023-03-29T11:30:41.336Z,99128.80
2023-03-29T11:34:07.345Z,99126.40
2023-03-29T11:37:24.079Z,99122.80
2023-03-29T11:40:48.308Z,99109.60
2023-03-29T11:44:04.672Z,99104.20
2023-03-29T11:47:19.878Z,99110.60
2023-03-29T11:50:36.124Z,99105.80
2023-03-29T11:53:56.547Z,99106.60
2023-03-29T11:57:13.552Z,99094.80
2023-03-29T12:00:28.773Z,99086.60
2023-03-29T12:03:47.176Z,99073.00
2023-03-29T12:07:08.214Z,99077.00
2023-03-29T12:10:25.049Z,99081.20
2023-03-29T12:13:39.319Z,99070.80
2023-03-29T12:16:54.877Z,99073.60
2023-03-29T12:20:16.859Z,99066.40
2023-03-29T12:23:25.119Z,99066.00
2023-03-29T12:26:55.992Z,99058.20
2023-03-29T12:30:40.115Z,99052.20
2023-03-29T12:34:15.270Z,99048.40
2023-03-29T12:37:37.423Z,99042.20
2023-03-29T12:40:49.908Z,99050.00
2023-03-29T12:44:04.745Z,99035.20
2023-03-29T12:47:24.999Z,99035.80
2023-03-29T12:50:42.819Z,99042.00
2023-03-29T12:53:55.252Z,99047.40
2023-03-29T12:57:20.540Z,99040.80
2023-03-29T13:00:44.298Z,99039.20
2023-03-29T13:03:57.497Z,99036.40
2023-03-29T13:07:16.923Z,99033.40
2023-03-29T13:10:53.322Z,99031.40
2023-03-29T13:14:05.948Z,99028.80
2023-03-29T13:17:26.451Z,99026.20
2023-03-29T13:20:54.283Z,99022.60
2023-03-29T13:24:17.368Z,99025.40
2023-03-29T13:27:42.780Z,99022.60
2023-03-29T13:31:01.909Z,99022.20
2023-03-29T13:34:25.112Z,99016.40
2023-03-29T13:37:49.088Z,99018.40
2023-03-29T13:41:29.154Z,99019.20
2023-03-29T13:44:49.329Z,99008.20
2023-03-29T13:48:06.398Z,99006.20
2023-03-29T13:51:34.932Z,99005.80
2023-03-29T13:54:52.101Z,99005.20
2023-03-29T13:58:05.798Z,98996.00
2023-03-29T14:01:24.710Z,98993.80
2023-03-29T14:04:40.152Z,98990.20
2023-03-29T14:07:54.008Z,98993.00
2023-03-29T14:11:08.376Z,98990.20
2023-03-29T14:14:18.106Z,98993.20
2023-03-29T14:17:28.383Z,98979.40
2023-03-29T14:20:38.543Z,98981.20
2023-03-29T14:23:55.875Z,98980.00
2023-03-29T14:27:10.302Z,98980.80
2023-03-29T14:30:30.777Z,98984.20
2023-03-29T14:33:39.224Z,98981.80
2023-03-29T14:36:50.184Z,98976.60
2023-03-29T14:40:00.155Z,98973.00
2023-03-29T14:43:11.680Z,98974.80
2023-03-29T14:46:23.628Z,98978.40
2023-03-29T14:49:33.389Z,98974.60
2023-03-29T14:52:46.409Z,98973.80
2023-03-29T14:55:56.706Z,98971.00
2023-03-29T14:59:22.489Z,98972.40
2023-03-29T15:02:33.022Z,98967.60
2023-03-29T15:05:45.684Z,98967.80
2023-03-29T15:09:05.166Z,98969.80
2023-03-29T15:12:21.399Z,98969.80
2023-03-29T15:15:31.968Z,98969.00
2023-03-29T15:18:44.211Z,98966.80
2023-03-29T15:21:54.612Z,98965.60
2023-03-29T15:25:03.473Z,98964.60
2023-03-29T15:28:33.797Z,98962.20
2023-03-29T15:31:43.680Z,98953.40
2023-03-29T15:35:01.590Z,98951.80
2023-03-29T15:38:11.161Z,98951.80
2023-03-29T15:41:19.539Z,98951.00
2023-03-29T15:44:33.980Z,98946.80
2023-03-29T15:47:42.359Z,98943.20
2023-03-29T15:50:50.908Z,98941.80
2023-03-29T15:53:58.858Z,98930.60
2023-03-29T15:57:10.273Z,98927.80
2023-03-29T16:00:23.081Z,98924.20
2023-03-29T16:03:31.710Z,98925.60
2023-03-29T16:06:40.027Z,98927.80
2023-03-29T16:09:48.980Z,98922.40
2023-03-29T16:12:56.907Z,98923.60
2023-03-29T16:16:04.983Z,98921.60
2023-03-29T16:19:13.054Z,98922.60
2023-03-29T16:22:21.318Z,98925.20
2023-03-29T16:25:30.939Z,98918.80
2023-03-29T16:28:38.761Z,98917.80
2023-03-29T16:31:47.085Z,98915.60
2023-03-29T16:34:56.006Z,98917.80
2023-03-29T16:38:04.040Z,98916.00
2023-03-29T16:41:16.301Z,98916.60
2023-03-29T16:44:28.014Z,98916.40
2023-03-29T16:47:36.834Z,98918.00
2023-03-29T16:50:45.355Z,98920.20
2023-03-29T16:53:54.856Z,98917.20
2023-03-29T16:57:02.962Z,98920.80
2023-03-29T17:00:16.450Z,98917.80
2023-03-29T17:03:24.990Z,98909.40
2023-03-29T17:06:33.250Z,98917.80
2023-03-29T17:09:41.276Z,98912.80
2023-03-29T17:12:50.560Z,98911.60
2023-03-29T17:15:59.250Z,98911.40
2023-03-29T17:19:07.124Z,98912.40
2023-03-29T17:22:15.378Z,98918.00
2023-03-29T17:25:24.673Z,98922.40
2023-03-29T17:28:33.917Z,98920.60
2023-03-29T17:31:48.138Z,98926.80
2023-03-29T17:34:59.374Z,98927.60
2023-03-29T17:38:07.418Z,98935.80
2023-03-29T17:41:16.192Z,98922.40
2023-03-29T17:44:24.850Z,98920.80
2023-03-29T17:47:37.491Z,98924.20
2023-03-29T17:50:46.265Z,98923.40
2023-03-29T17:53:57.264Z,98933.60
2023-03-29T17:57:05.165Z,98944.60
2023-03-29T18:00:17.920Z,98947.40
2023-03-29T18:03:26.544Z,98959.40
2023-03-29T18:06:34.740Z,98953.80
2023-03-29T18:09:43.734Z,98956.60
2023-03-29T18:12:52.878Z,98956.80
2023-03-29T18:16:02.551Z,98959.80
2023-03-29T18:19:11.540Z,98959.60
2023-03-29T18:22:20.833Z,98962.80
2023-03-29T18:25:29.526Z,98968.40
2023-03-29T18:28:39.946Z,98977.20
2023-03-29T18:31:49.152Z,98974.40
2023-03-29T18:34:59.870Z,98982.60
2023-03-29T18:38:09.442Z,98982.60
2023-03-29T18:41:18.822Z,98982.60
2023-03-29T18:44:27.402Z,98985.60
2023-03-29T18:47:35.795Z,98988.20
2023-03-29T18:50:46.642Z,98983.80
2023-03-29T18:53:56.579Z,98989.20
2023-03-29T18:57:06.413Z,98986.20
2023-03-29T19:00:15.915Z,98991.00
2023-03-29T19:03:24.563Z,98986.00
2023-03-29T19:06:34.357Z,98988.80
2023-03-29T19:09:43.485Z,98984.00
2023-03-29T19:12:52.115Z,98989.00
2023-03-29T19:16:01.003Z,98985.00
2023-03-29T19:19:14.395Z,98990.00
2023-03-29T19:22:23.589Z,98991.60
2023-03-29T19:25:33.776Z,98982.00
2023-03-29T19:28:42.522Z,98987.60
2023-03-29T19:31:52.188Z,98993.40
2023-03-29T19:35:04.446Z,98992.20
2023-03-29T19:38:12.897Z,98988.60
2023-03-29T19:41:23.528Z,98986.20
2023-03-29T19:44:32.085Z,98985.80
2023-03-29T19:47:42.374Z,98985.00
2023-03-29T19:50:51.445Z,98976.40
2023-03-29T19:53:59.732Z,98975.20
2023-03-29T19:57:09.380Z,98975.40
2023-03-29T20:00:24.585Z,98973.00
2023-03-29T20:03:34.330Z,98974.00
2023-03-29T20:06:40.893Z,98972.20
2023-03-29T20:09:49.373Z,98967.40
2023-03-29T20:12:58.021Z,98967.40
2023-03-29T20:16:07.037Z,98962.40
2023-03-29T20:19:17.935Z,98959.60
2023-03-29T20:22:26.576Z,98964.00
2023-03-29T20:25:37.996Z,98960.20
2023-03-29T20:28:46.059Z,98959.00
2023-03-29T20:31:54.406Z,98960.00
2023-03-29T20:35:02.922Z,98958.60
2023-03-29T20:38:11.946Z,98951.60
2023-03-29T20:41:20.843Z,98955.60
2023-03-29T20:44:29.297Z,98956.60
2023-03-29T20:47:42.641Z,98954.20
2023-03-29T20:50:52.086Z,98949.60
2023-03-29T20:54:05.109Z,98948.20
2023-03-29T20:57:15.929Z,98950.40
2023-03-29T21:00:25.620Z,98953.20
2023-03-29T21:03:35.329Z,98945.60
2023-03-29T21:06:45.795Z,98939.80
2023-03-29T21:09:54.458Z,98931.80
2023-03-29T21:13:03.019Z,98939.80
2023-03-29T21:16:13.253Z,98935.80
2023-03-29T21:19:23.181Z,98932.00
2023-03-29T21:22:33.703Z,98931.40
2023-03-29T21:25:44.377Z,98930.00
2023-03-29T21:28:53.349Z,98930.60
2023-03-29T21:32:02.500Z,98928.40
2023-03-29T21:35:13.335Z,98929.00
2023-03-29T21:38:21.847Z,98926.80
2023-03-29T21:41:29.984Z,98931.20
2023-03-29T21:44:37.891Z,98934.20
2023-03-29T21:47:46.233Z,98928.80
2023-03-29T21:50:54.831Z,98947.40
2023-03-29T21:54:02.896Z,98935.00
2023-03-29T21:57:11.272Z,98938.60
2023-03-29T22:00:21.599Z,98936.00
2023-03-29T22:03:30.157Z,98934.20
2023-03-29T22:06:38.083Z,98936.80
2023-03-29T22:09:46.619Z,98938.40
2023-03-29T22:12:55.158Z,98931.40
2023-03-29T22:16:05.068Z,98932.80
2023-03-29T22:19:12.486Z,98932.00
2023-03-29T22:22:21.882Z,98928.20
2023-03-29T22:25:29.954Z,98928.40
2023-03-29T22:28:38.712Z,98929.80
2023-03-29T22:31:46.898Z,98929.80
2023-03-29T22:34:55.627Z,98937.00
2023-03-29T22:38:04.460Z,98932.00
2023-03-29T22:41:13.379Z,98936.40
2023-03-29T22:44:21.679Z,98936.00
2023-03-29T22:47:30.027Z,98938.80
2023-03-29T22:50:37.941Z,98941.40
2023-03-29T22:53:47.986Z,98946.00
2023-03-29T22:56:56.014Z,98941.00
2023-03-29T23:00:09.475Z,98938.60
2023-03-29T23:03:18.016Z,98933.80
2023-03-29T23:06:26.603Z,98928.80
2023-03-29T23:09:35.265Z,98927.40
2023-03-29T23:12:44.120Z,98934.20
2023-03-29T23:15:54.637Z,98933.00
2023-03-29T23:19:02.923Z,98932.20
2023-03-29T23:22:11.792Z,98932.60
2023-03-29T23:25:20.015Z,98926.40
2023-03-29T23:28:31.909Z,98928.80
2023-03-29T23:31:40.240Z,98928.00
2023-03-29T23:34:48.306Z,98935.40
2023-03-29T23:37:56.681Z,98933.00
2023-03-29T23:41:08.681Z,98930.00
2023-03-29T23:44:16.748Z,98932.60
2023-03-29T23:47:25.565Z,98928.00
2023-03-29T23:50:33.750Z,98926.40
2023-03-29T23:53:42.054Z,98919.60
2023-03-29T23:56:50.897Z,98917.40
